createdAt,value
2018-07-16T00:00:56.606Z,6.03
2018-07-16T00:03:26.310Z,6.50
2018-07-16T00:05:55.987Z,4.57
2018-07-16T00:08:25.684Z,4.53
2018-07-16T00:10:55.415Z,4.60
2018-07-16T00:13:25.160Z,5.03
2018-07-16T00:15:54.368Z,4.87
2018-07-16T00:18:23.968Z,4.97
2018-07-16T00:20:53.703Z,5.23
2018-07-16T00:23:23.452Z,4.47
2018-07-16T00:25:53.102Z,6.90
2018-07-16T00:28:22.863Z,7.07
2018-07-16T00:30:52.604Z,6.10
2018-07-16T00:33:22.658Z,5.30
2018-07-16T00:35:52.338Z,5.67
2018-07-16T00:38:22.016Z,5.00
2018-07-16T00:40:51.679Z,6.37
2018-07-16T00:43:20.966Z,5.53
2018-07-16T00:45:50.498Z,4.73
2018-07-16T00:48:20.240Z,5.80
2018-07-16T00:50:50.000Z,5.43
2018-07-16T00:53:19.728Z,4.87
2018-07-16T00:55:49.547Z,5.23
2018-07-16T00:58:19.148Z,5.07
2018-07-16T01:00:48.984Z,6.20
2018-07-16T01:03:18.740Z,5.50
2018-07-16T01:05:48.543Z,5.10
2018-07-16T01:08:18.202Z,6.13
2018-07-16T01:10:48.021Z,5.43
2018-07-16T01:13:17.704Z,5.67
2018-07-16T01:15:47.527Z,7.00
2018-07-16T01:18:17.685Z,7.00
2018-07-16T01:20:47.511Z,8.17
2018-07-16T01:23:17.260Z,7.13
2018-07-16T01:25:47.070Z,6.70
2018-07-16T01:28:16.809Z,6.90
2018-07-16T01:30:46.575Z,6.47
2018-07-16T01:33:16.639Z,6.40
2018-07-16T01:35:46.318Z,8.93
2018-07-16T01:38:15.755Z,8.80
2018-07-16T01:40:45.449Z,6.13
2018-07-16T01:43:15.179Z,6.60
2018-07-16T01:45:44.941Z,7.30
2018-07-16T01:48:14.733Z,7.23
2018-07-16T01:50:44.470Z,7.60
2018-07-16T01:53:14.171Z,9.47
2018-07-16T01:55:43.968Z,7.77
2018-07-16T01:58:13.799Z,7.73
2018-07-16T02:00:54.308Z,6.40
2018-07-16T02:03:25.556Z,7.40
2018-07-16T02:05:55.250Z,7.57
2018-07-16T02:08:25.848Z,8.17
2018-07-16T02:10:56.006Z,7.60
2018-07-16T02:13:25.759Z,8.30
2018-07-16T02:15:55.500Z,8.17
2018-07-16T02:18:25.641Z,8.40
2018-07-16T02:20:55.306Z,9.10
2018-07-16T02:23:24.968Z,7.20
2018-07-16T02:25:54.715Z,7.27
2018-07-16T02:28:24.405Z,7.73
2018-07-16T02:30:54.250Z,9.27
2018-07-16T02:33:24.053Z,7.67
2018-07-16T02:35:53.875Z,8.73
2018-07-16T02:38:23.670Z,9.07
2018-07-16T02:40:53.480Z,8.97
2018-07-16T02:43:23.357Z,11.03
2018-07-16T02:45:53.072Z,8.40
2018-07-16T02:48:22.892Z,9.60
2018-07-16T02:50:52.617Z,10.57
2018-07-16T02:53:22.325Z,11.07
2018-07-16T02:55:52.156Z,9.90
2018-07-16T02:58:21.928Z,9.17
2018-07-16T03:00:51.782Z,9.20
2018-07-16T03:03:21.599Z,9.40
2018-07-16T03:05:51.357Z,11.43
2018-07-16T03:08:21.104Z,11.07
2018-07-16T03:10:50.920Z,8.37
2018-07-16T03:13:20.757Z,8.40
2018-07-16T03:15:50.530Z,9.40
2018-07-16T03:18:20.341Z,9.50
2018-07-16T03:20:50.401Z,11.07
2018-07-16T03:23:20.259Z,9.63
2018-07-16T03:25:50.101Z,11.50
2018-07-16T03:28:19.977Z,10.23
2018-07-16T03:30:49.902Z,9.93
2018-07-16T03:33:19.762Z,10.20
2018-07-16T03:35:49.420Z,10.60
2018-07-16T03:38:19.197Z,9.53
2018-07-16T03:40:48.927Z,9.53
2018-07-16T03:43:18.761Z,8.63
2018-07-16T03:45:48.625Z,9.13
2018-07-16T03:48:18.560Z,9.93
2018-07-16T03:50:47.873Z,9.90
2018-07-16T03:53:17.072Z,11.17
2018-07-16T03:55:46.737Z,11.40
2018-07-16T03:58:16.517Z,10.10
2018-07-16T04:00:46.310Z,10.70
2018-07-16T04:03:15.980Z,11.77
2018-07-16T04:05:45.749Z,13.53
2018-07-16T04:08:15.443Z,11.03
2018-07-16T04:10:45.177Z,10.83
2018-07-16T04:13:14.964Z,12.77
2018-07-16T04:15:44.650Z,12.20
2018-07-16T04:18:17.501Z,8.87
2018-07-16T04:20:47.441Z,9.00
2018-07-16T04:23:17.675Z,10.60
2018-07-16T04:25:47.390Z,11.53
2018-07-16T04:28:17.100Z,11.10
2018-07-16T04:30:46.850Z,11.73
2018-07-16T04:33:16.620Z,10.90
2018-07-16T04:35:46.346Z,9.60
2018-07-16T04:38:16.076Z,11.37
2018-07-16T04:40:45.797Z,11.27
2018-07-16T04:43:15.576Z,10.57
2018-07-16T04:45:45.366Z,10.93
2018-07-16T04:48:15.131Z,10.93
2018-07-16T04:50:44.890Z,11.87
2018-07-16T04:53:14.640Z,9.30
2018-07-16T04:55:44.365Z,10.50
2018-07-16T04:58:14.174Z,12.47
2018-07-16T05:00:43.917Z,11.80
2018-07-16T05:03:13.739Z,11.87
2018-07-16T05:05:43.442Z,12.50
2018-07-16T05:08:13.242Z,10.43
2018-07-16T05:10:42.527Z,10.30
2018-07-16T05:13:12.100Z,9.97
2018-07-16T05:15:41.844Z,11.80
2018-07-16T05:18:11.188Z,13.30
2018-07-16T05:20:40.822Z,12.87
2018-07-16T05:23:10.513Z,12.57
2018-07-16T05:25:40.263Z,12.37
2018-07-16T05:28:10.108Z,11.73
2018-07-16T05:30:40.348Z,13.60
2018-07-16T05:33:10.182Z,12.97
2018-07-16T05:35:40.066Z,11.83
2018-07-16T05:38:09.819Z,10.37
2018-07-16T05:40:39.580Z,11.50
2018-07-16T05:43:09.345Z,12.03
2018-07-16T05:45:39.097Z,11.00
2018-07-16T05:48:08.867Z,13.03
2018-07-16T05:50:38.576Z,10.77
2018-07-16T05:53:08.288Z,11.00
2018-07-16T05:55:37.979Z,8.93
2018-07-16T05:58:07.713Z,12.03
2018-07-16T06:00:37.440Z,9.73
2018-07-16T06:03:07.203Z,12.83
2018-07-16T06:05:36.882Z,12.07
2018-07-16T06:08:06.582Z,11.83
2018-07-16T06:10:36.300Z,9.67
2018-07-16T06:13:06.147Z,10.93
2018-07-16T06:15:35.905Z,10.97
2018-07-16T06:18:05.619Z,11.20
2018-07-16T06:20:35.321Z,9.47
2018-07-16T06:23:05.441Z,9.83
2018-07-16T06:25:35.196Z,8.53
2018-07-16T06:28:04.865Z,8.97
2018-07-16T06:30:34.585Z,8.47
2018-07-16T06:33:04.336Z,9.77
2018-07-16T06:35:34.027Z,9.17
2018-07-16T06:38:03.684Z,9.43
2018-07-16T06:40:33.036Z,9.97
2018-07-16T06:43:02.488Z,7.97
2018-07-16T06:45:31.766Z,10.13
2018-07-16T06:48:01.429Z,9.07
2018-07-16T06:50:31.224Z,9.83
2018-07-16T06:53:00.818Z,8.50
2018-07-16T06:55:30.408Z,9.07
2018-07-16T06:58:00.147Z,10.43
2018-07-16T07:00:29.791Z,7.53
2018-07-16T07:02:59.468Z,12.40
2018-07-16T07:05:29.178Z,9.77
2018-07-16T07:07:58.906Z,7.40
2018-07-16T07:10:28.611Z,8.80
2018-07-16T07:12:59.542Z,7.50
2018-07-16T07:15:29.223Z,7.73
2018-07-16T07:17:59.041Z,7.20
2018-07-16T07:20:28.801Z,7.10
2018-07-16T07:22:58.553Z,6.87
2018-07-16T07:25:27.895Z,7.90
2018-07-16T07:27:57.491Z,7.43
2018-07-16T07:30:27.154Z,7.90
2018-07-16T07:32:56.817Z,6.40
2018-07-16T07:35:26.523Z,7.17
2018-07-16T07:37:56.213Z,7.07
2018-07-16T07:40:25.955Z,6.13
2018-07-16T07:42:55.725Z,6.07
2018-07-16T07:45:25.417Z,5.83
2018-07-16T07:47:54.679Z,5.40
2018-07-16T07:50:25.836Z,5.30
2018-07-16T07:52:56.529Z,4.27
2018-07-16T07:55:26.807Z,5.37
2018-07-16T07:57:57.492Z,4.87
2018-07-16T08:00:27.256Z,6.00
2018-07-16T08:02:57.179Z,5.07
2018-07-16T08:05:26.958Z,5.90
2018-07-16T08:07:58.198Z,4.97
2018-07-16T08:10:28.525Z,4.57
2018-07-16T08:12:59.247Z,6.03
2018-07-16T08:15:28.999Z,4.63
2018-07-16T08:17:58.712Z,6.30
2018-07-16T08:20:28.375Z,4.30
2018-07-16T08:23:02.553Z,3.67
2018-07-16T08:25:33.372Z,4.80
2018-07-16T08:28:04.596Z,3.50
2018-07-16T08:30:34.585Z,6.80
2018-07-16T08:33:04.223Z,3.80
2018-07-16T08:35:34.609Z,3.50
2018-07-16T08:38:04.246Z,3.67
2018-07-16T08:40:33.931Z,4.30
2018-07-16T08:43:05.379Z,3.70
2018-07-16T08:45:35.585Z,3.73
2018-07-16T08:48:05.373Z,4.20
2018-07-16T08:50:35.091Z,4.43
2018-07-16T08:53:04.777Z,3.03
2018-07-16T08:55:35.571Z,4.97
2018-07-16T08:58:05.361Z,4.10
2018-07-16T09:00:35.117Z,5.17
2018-07-16T09:03:04.822Z,3.90
2018-07-16T09:05:34.574Z,3.53
2018-07-16T09:08:07.564Z,3.57
2018-07-16T09:10:37.312Z,3.07
2018-07-16T09:13:07.137Z,3.93
2018-07-16T09:15:36.809Z,2.90
2018-07-16T09:18:06.607Z,3.07
2018-07-16T09:20:36.301Z,3.77
2018-07-16T09:23:06.046Z,3.50
2018-07-16T09:25:35.988Z,3.57
2018-07-16T09:28:05.756Z,4.03
2018-07-16T09:30:35.492Z,4.60
2018-07-16T09:33:05.238Z,3.67
2018-07-16T09:35:35.155Z,2.40
2018-07-16T09:38:04.939Z,2.83
2018-07-16T09:40:34.402Z,2.70
2018-07-16T09:43:04.276Z,3.20
2018-07-16T09:45:33.985Z,2.97
2018-07-16T09:48:03.730Z,3.20
2018-07-16T09:50:33.472Z,4.33
2018-07-16T09:53:02.717Z,2.70
2018-07-16T09:55:32.521Z,4.30
2018-07-16T09:58:02.268Z,2.67
2018-07-16T10:00:37.175Z,2.63
2018-07-16T10:03:06.999Z,4.00
2018-07-16T10:05:36.677Z,2.40
2018-07-16T10:08:06.627Z,3.67
2018-07-16T10:10:36.389Z,3.85
2018-07-16T10:13:06.432Z,3.30
2018-07-16T10:15:37.175Z,2.47
2018-07-16T10:18:06.863Z,2.73
2018-07-16T10:20:36.638Z,3.30
2018-07-16T10:23:06.399Z,2.50
2018-07-16T10:25:36.092Z,2.80
2018-07-16T10:28:05.946Z,5.07
2018-07-16T10:30:35.650Z,3.85
2018-07-16T10:33:05.422Z,2.62
2018-07-16T10:35:35.222Z,2.65
2018-07-16T10:38:04.922Z,3.17
2018-07-16T10:40:34.597Z,3.62
2018-07-16T10:43:04.342Z,2.62
2018-07-16T10:45:34.145Z,3.50
2018-07-16T10:48:14.315Z,3.30
2018-07-16T10:50:43.905Z,2.80
2018-07-16T10:53:13.879Z,3.47
2018-07-16T10:55:43.544Z,2.87
2018-07-16T10:58:13.285Z,3.45
2018-07-16T11:00:42.977Z,3.77
2018-07-16T11:03:12.694Z,2.80
2018-07-16T11:05:42.744Z,3.27
2018-07-16T11:08:13.163Z,2.70
2018-07-16T11:10:44.959Z,5.20
2018-07-16T11:13:15.029Z,4.77
2018-07-16T11:15:47.787Z,4.37
2018-07-16T11:18:19.960Z,4.42
2018-07-16T11:20:49.659Z,3.35
2018-07-16T11:23:19.376Z,3.52
2018-07-16T11:25:55.436Z,2.62
2018-07-16T11:28:26.179Z,4.08
2018-07-16T11:30:55.948Z,3.30
2018-07-16T11:33:25.746Z,3.40
2018-07-16T11:35:55.089Z,2.50
2018-07-16T11:38:24.599Z,2.50
2018-07-16T11:40:54.403Z,3.02
2018-07-16T11:43:24.117Z,2.87
2018-07-16T11:45:53.807Z,2.80
2018-07-16T11:48:23.546Z,3.77
2018-07-16T11:50:53.398Z,4.17
2018-07-16T11:53:22.894Z,2.92
2018-07-16T11:56:14.753Z,6.08
2018-07-16T11:58:44.733Z,5.40
2018-07-16T12:01:14.885Z,5.37
2018-07-16T12:03:44.584Z,3.58
2018-07-16T12:06:19.342Z,3.37
2018-07-16T12:08:49.019Z,4.75
2018-07-16T12:11:18.723Z,3.83
2018-07-16T12:13:48.481Z,2.85
2018-07-16T12:16:18.265Z,3.15
2018-07-16T12:18:47.980Z,5.97
2018-07-16T12:21:17.799Z,3.65
2018-07-16T12:23:47.598Z,3.95
2018-07-16T12:26:17.328Z,3.92
2018-07-16T12:28:47.084Z,4.65
2018-07-16T12:31:16.381Z,5.80
2018-07-16T12:33:46.012Z,3.98
2018-07-16T12:36:15.718Z,5.20
2018-07-16T12:38:45.407Z,3.80
2018-07-16T12:41:15.170Z,4.70
2018-07-16T12:43:45.504Z,4.30
2018-07-16T12:46:15.310Z,3.85
2018-07-16T12:48:44.972Z,3.58
2018-07-16T12:51:14.752Z,3.98
2018-07-16T12:53:44.469Z,3.35
2018-07-16T12:56:14.166Z,4.30
2018-07-16T12:58:45.761Z,3.83
2018-07-16T13:01:16.902Z,4.08
2018-07-16T13:03:46.597Z,4.28
2018-07-16T13:06:20.540Z,7.33
2018-07-16T13:08:50.335Z,3.00
2018-07-16T13:11:20.134Z,2.60
2018-07-16T13:13:50.253Z,3.75
2018-07-16T13:16:20.063Z,3.47
2018-07-16T13:18:49.722Z,3.12
2018-07-16T13:21:19.412Z,6.95
2018-07-16T13:23:49.138Z,4.12
2018-07-16T13:26:18.897Z,2.70
2018-07-16T13:28:49.413Z,2.65
2018-07-16T13:31:19.097Z,3.30
2018-07-16T13:33:49.812Z,2.95
2018-07-16T13:36:19.568Z,3.08
2018-07-16T13:38:49.348Z,6.53
2018-07-16T13:41:19.076Z,3.83
2018-07-16T13:43:49.855Z,4.58
2018-07-16T13:46:19.458Z,8.70
2018-07-16T13:48:53.826Z,3.72
2018-07-16T13:51:23.655Z,5.58
2018-07-16T13:53:53.044Z,6.15
2018-07-16T13:56:22.643Z,3.25
2018-07-16T13:58:55.222Z,3.60
2018-07-16T14:01:25.283Z,4.08
2018-07-16T14:03:55.107Z,2.60
2018-07-16T14:06:24.875Z,2.62
2018-07-16T14:08:55.515Z,5.62
2018-07-16T14:11:25.250Z,5.10
2018-07-16T14:13:54.943Z,6.17
2018-07-16T14:16:24.844Z,3.87
2018-07-16T14:18:54.573Z,4.05
2018-07-16T14:21:24.322Z,2.67
2018-07-16T14:23:55.475Z,2.60
2018-07-16T14:26:25.206Z,4.40
2018-07-16T14:28:55.263Z,3.20
2018-07-16T14:31:25.146Z,2.90
2018-07-16T14:33:54.936Z,3.10
2018-07-16T14:36:24.615Z,2.95
2018-07-16T14:38:54.273Z,2.65
2018-07-16T14:41:23.975Z,3.33
2018-07-16T14:43:53.777Z,2.98
2018-07-16T14:46:23.512Z,2.80
2018-07-16T14:48:53.232Z,3.08
2018-07-16T14:51:22.925Z,3.10
2018-07-16T14:54:00.677Z,3.85
2018-07-16T14:56:30.418Z,2.40
2018-07-16T14:59:00.099Z,8.40
2018-07-16T15:01:29.947Z,2.62
2018-07-16T15:03:59.904Z,6.28
2018-07-16T15:06:29.627Z,2.52
2018-07-16T15:08:59.367Z,4.65
2018-07-16T15:11:30.085Z,4.20
2018-07-16T15:13:59.827Z,3.80
2018-07-16T15:16:29.585Z,3.22
2018-07-16T15:18:59.338Z,2.80
2018-07-16T15:21:29.226Z,2.65
2018-07-16T15:23:58.866Z,3.00
2018-07-16T15:26:28.725Z,2.40
2018-07-16T15:28:58.480Z,2.87
2018-07-16T15:31:28.177Z,2.40
2018-07-16T15:33:57.435Z,3.45
2018-07-16T15:36:26.990Z,2.50
2018-07-16T15:38:56.752Z,2.30
2018-07-16T15:41:26.538Z,2.65
2018-07-16T15:43:56.250Z,3.83
2018-07-16T15:46:25.924Z,2.60
2018-07-16T15:48:55.627Z,2.60
2018-07-16T15:51:25.375Z,3.33
2018-07-16T15:53:55.218Z,5.35
2018-07-16T15:56:25.028Z,3.05
2018-07-16T15:58:54.760Z,2.27
2018-07-16T16:01:24.500Z,2.80
2018-07-16T16:03:54.244Z,2.45
2018-07-16T16:06:24.030Z,4.45
2018-07-16T16:08:53.863Z,2.37
2018-07-16T16:11:23.679Z,2.15
2018-07-16T16:13:53.424Z,3.08
2018-07-16T16:16:23.242Z,2.05
2018-07-16T16:18:53.283Z,2.72
2018-07-16T16:21:23.120Z,2.50
2018-07-16T16:23:52.798Z,3.30
2018-07-16T16:26:22.586Z,2.27
2018-07-16T16:28:51.812Z,3.67
2018-07-16T16:31:21.485Z,2.35
2018-07-16T16:33:51.595Z,3.75
2018-07-16T16:36:21.352Z,2.17
2018-07-16T16:38:51.426Z,3.55
2018-07-16T16:41:21.246Z,2.92
2018-07-16T16:43:50.953Z,2.87
2018-07-16T16:46:20.681Z,2.42
2018-07-16T16:48:50.806Z,3.72
2018-07-16T16:51:20.667Z,1.70
2018-07-16T16:53:50.431Z,5.15
2018-07-16T16:56:20.270Z,2.92
2018-07-16T16:58:50.017Z,2.08
2018-07-16T17:01:19.771Z,2.58
2018-07-16T17:03:49.819Z,3.37
2018-07-16T17:06:19.652Z,2.30
2018-07-16T17:08:49.400Z,2.90
2018-07-16T17:11:19.514Z,3.70
2018-07-16T17:13:49.236Z,5.55
2018-07-16T17:16:19.018Z,2.17
2018-07-16T17:18:48.243Z,2.42
2018-07-16T17:21:18.825Z,3.30
2018-07-16T17:23:48.614Z,2.75
2018-07-16T17:26:18.337Z,2.17
2018-07-16T17:28:47.986Z,1.65
2018-07-16T17:31:17.784Z,3.25
2018-07-16T17:33:47.778Z,3.58
2018-07-16T17:36:17.488Z,2.08
2018-07-16T17:38:47.194Z,3.10
2018-07-16T17:41:16.869Z,2.45
2018-07-16T17:43:46.549Z,2.20
2018-07-16T17:46:16.269Z,2.12
2018-07-16T17:48:45.907Z,2.15
2018-07-16T17:51:15.601Z,2.50
2018-07-16T17:53:45.310Z,3.62
2018-07-16T17:56:15.155Z,2.75
2018-07-16T17:58:44.887Z,2.22
2018-07-16T18:01:14.623Z,2.35
2018-07-16T18:03:44.322Z,2.12
2018-07-16T18:06:13.970Z,2.20
2018-07-16T18:08:43.658Z,3.90
2018-07-16T18:11:13.799Z,2.50
2018-07-16T18:13:43.428Z,4.67
2018-07-16T18:16:13.083Z,4.55
2018-07-16T18:18:43.187Z,2.47
2018-07-16T18:21:13.025Z,2.67
2018-07-16T18:23:42.675Z,3.45
2018-07-16T18:26:12.355Z,2.80
2018-07-16T18:28:42.029Z,2.98
2018-07-16T18:31:11.741Z,2.98
2018-07-16T18:33:41.420Z,2.80
2018-07-16T18:36:10.700Z,3.15
2018-07-16T18:38:40.287Z,2.98
2018-07-16T18:41:09.974Z,3.02
2018-07-16T18:43:39.797Z,8.05
2018-07-16T18:46:09.497Z,3.95
2018-07-16T18:48:39.212Z,3.45
2018-07-16T18:51:08.893Z,2.95
2018-07-16T18:53:38.576Z,3.50
2018-07-16T18:56:08.287Z,3.57
2018-07-16T18:58:37.614Z,4.20
2018-07-16T19:01:07.277Z,3.30
2018-07-16T19:03:36.973Z,3.10
2018-07-16T19:06:06.658Z,3.40
2018-07-16T19:08:36.310Z,3.23
2018-07-16T19:11:05.976Z,5.97
2018-07-16T19:13:35.640Z,4.27
2018-07-16T19:16:05.364Z,4.07
2018-07-16T19:18:35.044Z,3.53
2018-07-16T19:21:04.882Z,3.60
2018-07-16T19:23:34.534Z,4.10
2018-07-16T19:26:04.347Z,4.73
2018-07-16T19:28:34.087Z,4.43
2018-07-16T19:31:03.872Z,3.77
2018-07-16T19:33:33.658Z,4.30
2018-07-16T19:36:03.343Z,4.17
2018-07-16T19:38:33.064Z,3.90
2018-07-16T19:41:02.764Z,3.60
2018-07-16T19:43:32.472Z,4.87
2018-07-16T19:46:02.367Z,4.43
2018-07-16T19:48:31.742Z,5.70
2018-07-16T19:51:01.996Z,5.83
2018-07-16T19:53:31.714Z,5.00
2018-07-16T19:56:01.759Z,4.07
2018-07-16T19:58:31.475Z,5.77
2018-07-16T20:01:02.241Z,5.83
2018-07-16T20:03:31.860Z,4.13
2018-07-16T20:06:02.079Z,4.57
2018-07-16T20:08:31.644Z,4.77
2018-07-16T20:11:02.185Z,4.17
2018-07-16T20:13:31.798Z,6.20
2018-07-16T20:16:01.390Z,4.67
2018-07-16T20:18:32.371Z,5.10
2018-07-16T20:21:02.445Z,5.83
2018-07-16T20:23:32.284Z,6.13
2018-07-16T20:26:01.931Z,5.77
2018-07-16T20:28:31.994Z,4.97
2018-07-16T20:31:01.668Z,4.83
2018-07-16T20:33:31.269Z,6.30
2018-07-16T20:36:00.871Z,5.00
2018-07-16T20:38:30.516Z,5.43
2018-07-16T20:41:00.105Z,7.83
2018-07-16T20:43:29.856Z,5.00
2018-07-16T20:45:59.379Z,6.70
2018-07-16T20:48:28.640Z,8.77
2018-07-16T20:50:58.101Z,6.80
2018-07-16T20:53:27.761Z,9.83
2018-07-16T20:55:57.577Z,6.10
2018-07-16T20:58:27.192Z,6.63
2018-07-16T21:00:56.852Z,6.10
2018-07-16T21:03:26.498Z,8.43
2018-07-16T21:05:56.099Z,10.60
2018-07-16T21:08:25.695Z,6.13
2018-07-16T21:10:55.242Z,8.20
2018-07-16T21:13:24.788Z,7.27
2018-07-16T21:15:54.405Z,6.07
2018-07-16T21:18:24.005Z,6.07
2018-07-16T21:20:53.621Z,4.80
2018-07-16T21:23:23.566Z,6.03
2018-07-16T21:25:53.234Z,6.40
2018-07-16T21:28:22.840Z,8.97
2018-07-16T21:30:52.501Z,7.23
2018-07-16T21:33:22.035Z,6.30
2018-07-16T21:35:51.966Z,4.93
2018-07-16T21:38:22.650Z,5.33
2018-07-16T21:40:52.268Z,7.27
2018-07-16T21:43:21.825Z,6.80
2018-07-16T21:45:51.396Z,8.37
2018-07-16T21:48:21.046Z,6.57
2018-07-16T21:50:51.507Z,5.37
2018-07-16T21:53:21.116Z,5.90
2018-07-16T21:55:50.867Z,5.60
2018-07-16T21:58:20.846Z,6.20
2018-07-16T22:00:50.997Z,4.63
2018-07-16T22:03:20.509Z,6.00
2018-07-16T22:05:50.095Z,6.83
2018-07-16T22:08:19.659Z,6.43
2018-07-16T22:10:49.846Z,5.93
2018-07-16T22:13:19.490Z,5.97
2018-07-16T22:15:48.655Z,5.10
2018-07-16T22:18:18.096Z,5.93
2018-07-16T22:20:47.681Z,5.67
2018-07-16T22:23:17.285Z,9.87
2018-07-16T22:25:46.514Z,8.27
2018-07-16T22:28:16.195Z,9.33
2018-07-16T22:30:45.736Z,6.73
2018-07-16T22:33:15.386Z,8.60
2018-07-16T22:35:44.919Z,6.73
2018-07-16T22:38:14.543Z,8.60
2018-07-16T22:40:44.387Z,7.40
2018-07-16T22:43:14.008Z,7.13
2018-07-16T22:45:43.933Z,7.43
2018-07-16T22:48:13.513Z,6.40
2018-07-16T22:50:43.156Z,5.83
2018-07-16T22:53:12.764Z,7.80
2018-07-16T22:55:42.343Z,7.47
2018-07-16T22:58:11.894Z,7.20
2018-07-16T23:00:41.453Z,6.67
2018-07-16T23:03:11.091Z,6.83
2018-07-16T23:05:40.892Z,10.07
2018-07-16T23:08:10.601Z,6.50
2018-07-16T23:10:40.147Z,7.60
2018-07-16T23:13:10.242Z,7.07
2018-07-16T23:15:39.789Z,6.67
2018-07-16T23:18:09.374Z,7.10
2018-07-16T23:20:39.049Z,8.47
2018-07-16T23:23:08.600Z,7.97
2018-07-16T23:25:38.242Z,11.80
2018-07-16T23:28:08.044Z,6.80
2018-07-16T23:30:37.614Z,6.63
2018-07-16T23:33:07.202Z,6.53
2018-07-16T23:35:36.401Z,6.47
2018-07-16T23:38:05.869Z,9.30
2018-07-16T23:40:35.456Z,9.33
2018-07-16T23:43:05.301Z,7.97
2018-07-16T23:45:34.899Z,7.73
2018-07-16T23:48:04.580Z,7.03
2018-07-16T23:50:34.152Z,9.30
2018-07-16T23:53:03.802Z,8.17
2018-07-16T23:55:33.435Z,8.47
2018-07-16T23:58:02.955Z,9.77
